Fairchance, Pennsylvania
Current Conditions -  °F | °C
As of 12:53 AM on Sunday 21 Dec 2014 (Local Time) from KMGW Reporting Station
Overcast Overcast  
Wind Chill: 30°   Ceiling: 2600
Heat Index: 30°   Visibility: 10mi
Dew Point: 19°   Wind: 3mph
Humidity: 64%   Direction: 350°N
Pressure: 30.25"   Gusts: NA
Location:  39.82°N, 79.75°W
Report Text: KMGW 210553Z AUTO 35003KT 10SM OVC026 M01/M07 A3025 RMK AO2 SLP258 T10111072 11006 21011 50000 TSNO
Loading
Personal Weather Stations






























Interactive Weather Map New forecast layout! Learn more

10-Day Weather Forecast

Advertisements
Track Severe Weather on mobile